Time;durP1;ratioP1;P1;durP2;ratioP2;P2;SDS_P1;SDS_P2;PMS_P1;PMS_P2;Temp;Humidity;BMP_temperature;BMP_pressure;BME280_temperature;BME280_humidity;BME280_pressure;Samples;Min_cycle;Max_cycle;Signal;HPM_P1;HPM_P2
2023/04/29 00:00:14;;;;;;;41.03;15.50;;;;;;;11.82;85.37;100997.16;5037586;28;20045;-45
2023/04/29 00:02:41;;;;;;;46.05;18.40;;;;;;;11.84;85.39;100998.41;5048676;28;20449;-46
2023/04/29 00:05:08;;;;;;;38.92;17.23;;;;;;;11.83;85.21;100998.78;5031206;28;20052;-47
2023/04/29 00:07:36;;;;;;;40.20;13.27;;;;;;;11.83;85.30;100994.03;5047242;28;20044;-45
2023/04/29 00:10:03;;;;;;;27.48;12.85;;;;;;;11.92;85.34;101003.03;5048361;28;20102;-52
2023/04/29 00:12:31;;;;;;;31.55;12.60;;;;;;;12.01;84.89;100991.81;5048549;28;20059;-48
2023/04/29 00:14:59;;;;;;;29.35;12.93;;;;;;;12.09;84.31;101001.97;5048837;28;20045;-45
2023/04/29 00:17:26;;;;;;;22.85;11.82;;;;;;;12.06;84.14;100997.13;5046607;28;20128;-51
2023/04/29 00:19:53;;;;;;;21.50;9.43;;;;;;;11.99;84.39;101003.25;5042951;28;20107;-46
2023/04/29 00:22:21;;;;;;;21.58;11.43;;;;;;;11.93;84.72;101003.84;5047637;28;20041;-48
2023/04/29 00:24:48;;;;;;;20.80;10.15;;;;;;;11.92;84.73;101008.59;5049973;28;20041;-45
2023/04/29 00:27:15;;;;;;;23.45;10.35;;;;;;;11.93;84.57;101012.16;5048473;28;20044;-44
2023/04/29 00:29:42;;;;;;;22.42;9.80;;;;;;;11.88;84.70;101006.84;5050354;28;20574;-45
2023/04/29 00:32:09;;;;;;;22.60;11.73;;;;;;;11.83;85.04;101004.31;5051297;28;20076;-45
2023/04/29 00:34:36;;;;;;;17.33;8.45;;;;;;;11.79;85.15;101001.41;5048663;28;20446;-48
2023/04/29 00:37:03;;;;;;;18.45;8.32;;;;;;;11.76;85.30;101004.06;5048317;28;20067;-45
2023/04/29 00:39:29;;;;;;;19.90;8.95;;;;;;;11.75;85.53;100996.91;5048597;28;20045;-45
2023/04/29 00:41:56;;;;;;;15.55;7.53;;;;;;;11.74;85.40;101007.19;5048205;28;20106;-45
2023/04/29 00:44:23;;;;;;;13.30;7.60;;;;;;;11.74;85.58;100998.06;5054891;28;20047;-45
2023/04/29 00:46:50;;;;;;;14.35;7.35;;;;;;;11.72;85.73;101003.97;5049533;28;20466;-46
2023/04/29 00:49:16;;;;;;;14.02;7.95;;;;;;;11.76;85.56;100998.53;5048405;28;20111;-45
2023/04/29 00:51:44;;;;;;;11.10;7.65;;;;;;;11.76;85.38;101004.88;5046443;28;20132;-45
2023/04/29 00:54:11;;;;;;;12.43;7.55;;;;;;;11.72;85.35;101006.75;5044455;28;20053;-47
2023/04/29 00:56:42;;;;;;;12.05;7.30;;;;;;;11.65;85.49;101003.69;5041103;28;20637;-45
2023/04/29 00:59:09;;;;;;;12.77;7.60;;;;;;;11.58;85.76;101004.28;5047554;28;20407;-50
2023/04/29 01:01:36;;;;;;;11.63;7.40;;;;;;;11.56;86.05;101005.78;5029355;28;20053;-46
2023/04/29 01:04:04;;;;;;;15.50;6.53;;;;;;;11.57;85.92;101005.41;5035887;28;20442;-46
2023/04/29 01:07:01;;;;;;;10.70;6.90;;;;;;;11.51;86.07;101003.25;5045942;28;20530;-45
2023/04/29 01:09:40;;;;;;;12.77;6.47;;;;;;;11.47;86.00;101002.28;5040952;28;20037;-46
2023/04/29 01:12:19;;;;;;;9.13;6.85;;;;;;;11.45;86.13;101010.16;5041362;28;20048;-45
2023/04/29 01:15:01;;;;;;;14.35;7.05;;;;;;;11.46;86.14;101006.25;5048395;28;20052;-46
2023/04/29 01:17:35;;;;;;;9.82;5.82;;;;;;;11.43;86.16;101007.75;5047733;28;20460;-45
2023/04/29 01:20:03;;;;;;;9.25;6.35;;;;;;;11.45;85.89;101007.38;5048084;28;20467;-46
2023/04/29 01:22:30;;;;;;;7.45;4.88;;;;;;;11.40;86.10;101002.88;5047958;28;20111;-46
2023/04/29 01:24:57;;;;;;;7.47;4.25;;;;;;;11.38;86.05;100994.09;5048203;28;20051;-45
2023/04/29 01:27:36;;;;;;;9.95;5.53;;;;;;;11.32;86.20;100989.94;5054227;28;20064;-46
2023/04/29 01:30:08;;;;;;;9.00;6.63;;;;;;;11.30;86.27;100997.78;5051331;28;20048;-48
2023/04/29 01:33:17;;;;;;;5.85;4.55;;;;;;;11.31;86.70;100996.63;5030455;28;20164;-45
2023/04/29 01:35:59;;;;;;;6.50;4.88;;;;;;;11.29;86.31;101003.66;4989287;28;20046;-45
2023/04/29 01:38:39;;;;;;;9.25;5.63;;;;;;;11.28;86.43;101002.84;5045152;28;20061;-45
2023/04/29 01:41:08;;;;;;;6.20;5.15;;;;;;;11.31;86.23;101001.34;5051794;28;20044;-45
2023/04/29 01:43:36;;;;;;;7.45;5.15;;;;;;;11.26;86.26;101001.56;5051249;28;20037;-45
2023/04/29 01:46:08;;;;;;;7.95;5.10;;;;;;;11.25;86.35;101003.53;5051608;28;20045;-45
2023/04/29 01:48:36;;;;;;;7.22;5.28;;;;;;;11.22;86.25;101007.00;5051384;28;20139;-48
2023/04/29 01:51:05;;;;;;;9.77;6.07;;;;;;;11.14;86.56;101002.38;5051457;28;20045;-46
2023/04/29 01:53:32;;;;;;;14.68;7.80;;;;;;;11.14;86.69;101005.13;5051342;28;20156;-52
2023/04/29 01:55:59;;;;;;;13.35;7.22;;;;;;;11.11;86.59;101000.28;5051209;28;20483;-45
2023/04/29 01:58:26;;;;;;;15.43;6.78;;;;;;;11.06;86.98;101006.03;5051137;28;20056;-45
2023/04/29 02:00:54;;;;;;;9.63;5.20;;;;;;;11.09;86.96;101004.53;5051085;28;20041;-45
2023/04/29 02:03:21;;;;;;;11.65;6.43;;;;;;;11.11;86.83;101005.00;5050975;28;20049;-44
2023/04/29 02:05:49;;;;;;;12.82;6.63;;;;;;;11.10;86.82;101009.72;5051378;28;20046;-46
2023/04/29 02:08:16;;;;;;;10.30;5.65;;;;;;;11.10;86.68;101012.50;5050043;28;20087;-46
2023/04/29 02:10:52;;;;;;;8.80;5.35;;;;;;;11.08;87.13;101000.16;5040943;28;20051;-50
2023/04/29 02:13:19;;;;;;;10.07;5.95;;;;;;;11.15;86.93;101005.94;5047176;28;20045;-45
2023/04/29 02:15:46;;;;;;;11.32;5.80;;;;;;;11.22;86.89;101001.47;5044411;28;20045;-46
2023/04/29 02:18:13;;;;;;;9.23;5.70;;;;;;;11.27;86.51;100998.47;5048269;28;20059;-45
2023/04/29 02:20:40;;;;;;;10.48;5.78;;;;;;;11.25;86.59;101006.28;5047270;28;20041;-45
2023/04/29 02:23:07;;;;;;;10.75;4.93;;;;;;;11.22;86.69;101007.00;5048907;28;20075;-45
2023/04/29 02:25:34;;;;;;;12.77;5.60;;;;;;;11.23;86.59;101003.06;5048219;28;20060;-48
2023/04/29 02:28:00;;;;;;;13.18;5.50;;;;;;;11.23;86.68;100996.69;5044273;28;20116;-45
2023/04/29 02:30:29;;;;;;;12.98;5.82;;;;;;;11.21;86.67;101004.56;5044420;28;20159;-45
2023/04/29 02:32:56;;;;;;;14.15;7.82;;;;;;;11.13;86.54;100997.97;5045195;28;20041;-45
2023/04/29 02:35:22;;;;;;;15.60;8.20;;;;;;;11.07;86.96;101010.41;5049402;28;20052;-46
2023/04/29 02:37:49;;;;;;;12.93;5.85;;;;;;;11.02;87.15;101003.13;5046886;28;20443;-45
2023/04/29 02:40:17;;;;;;;9.63;5.03;;;;;;;10.97;87.20;101006.13;5047158;28;20048;-48
2023/04/29 02:42:43;;;;;;;10.18;6.18;;;;;;;10.90;87.47;101010.59;5045385;28;20049;-47
2023/04/29 02:45:10;;;;;;;7.38;5.30;;;;;;;10.82;87.68;101017.84;5044471;28;20045;-45
2023/04/29 02:47:37;;;;;;;8.57;5.38;;;;;;;10.83;87.90;101018.63;5048799;28;20056;-45
2023/04/29 02:50:05;;;;;;;5.68;4.50;;;;;;;10.81;87.78;101018.16;5029415;28;20079;-45
2023/04/29 02:52:31;;;;;;;6.50;4.45;;;;;;;10.82;87.97;101022.56;5047563;28;20503;-46
2023/04/29 02:55:02;;;;;;;9.77;6.40;;;;;;;10.80;87.75;101013.81;5047218;28;20056;-45
2023/04/29 02:57:29;;;;;;;5.60;3.75;;;;;;;10.78;87.97;101021.63;5048236;28;20048;-48
2023/04/29 02:59:56;;;;;;;6.18;4.05;;;;;;;10.76;88.00;101026.69;5045199;28;20495;-45
2023/04/29 03:02:22;;;;;;;9.48;4.97;;;;;;;10.75;88.07;101020.34;5063201;22;20065;-45
2023/04/29 03:04:49;;;;;;;4.85;3.88;;;;;;;10.74;87.90;101017.91;5024974;28;20064;-44
2023/04/29 03:07:16;;;;;;;7.93;3.53;;;;;;;10.71;87.83;101021.38;5026888;28;20049;-45
2023/04/29 03:09:43;;;;;;;6.18;4.53;;;;;;;10.68;88.16;101019.28;5028290;28;20133;-46
2023/04/29 03:12:10;;;;;;;8.27;4.65;;;;;;;10.66;88.19;101025.16;5029534;28;20080;-45
2023/04/29 03:14:37;;;;;;;6.00;3.65;;;;;;;10.66;88.43;101027.09;5026288;28;20099;-44
2023/04/29 03:17:04;;;;;;;6.28;3.92;;;;;;;10.68;88.42;101033.13;5026095;28;20707;-50
2023/04/29 03:19:31;;;;;;;7.05;4.90;;;;;;;10.70;88.33;101022.50;5028785;28;20045;-46
2023/04/29 03:21:57;;;;;;;5.65;3.83;;;;;;;10.69;88.52;101038.31;5030237;28;20198;-49
2023/04/29 03:24:24;;;;;;;4.30;3.45;;;;;;;10.76;88.39;101035.00;5019873;28;20141;-46
2023/04/29 03:26:50;;;;;;;5.10;3.75;;;;;;;10.83;88.48;101043.56;5023826;28;20132;-45
2023/04/29 03:29:17;;;;;;;5.85;4.28;;;;;;;10.86;88.40;101042.88;5029487;28;20052;-46
2023/04/29 03:31:44;;;;;;;5.75;3.63;;;;;;;10.85;88.00;101036.56;5025202;28;20060;-48
2023/04/29 03:34:13;;;;;;;6.05;4.18;;;;;;;10.82;88.23;101047.50;5028933;28;20045;-45
2023/04/29 03:36:39;;;;;;;6.57;3.78;;;;;;;10.86;88.28;101038.16;5028268;28;20703;-47
2023/04/29 03:39:06;;;;;;;6.30;4.18;;;;;;;10.87;88.16;101033.44;5027682;28;20079;-45
2023/04/29 03:41:33;;;;;;;7.43;4.25;;;;;;;10.83;88.16;101033.28;5025704;28;20046;-46
2023/04/29 03:44:00;;;;;;;4.72;3.83;;;;;;;10.83;88.27;101032.47;5035911;28;20044;-48
2023/04/29 03:46:26;;;;;;;4.55;4.10;;;;;;;10.85;88.36;101035.75;5034406;28;20061;-46
2023/04/29 03:48:56;;;;;;;6.25;4.15;;;;;;;10.89;88.56;101026.41;5039493;28;20103;-46
2023/04/29 03:51:24;;;;;;;6.72;3.90;;;;;;;10.92;88.61;101036.81;5023372;28;20148;-47
2023/04/29 03:53:53;;;;;;;6.03;4.82;;;;;;;11.01;88.62;101031.19;5034413;28;20072;-46
2023/04/29 03:56:20;;;;;;;5.47;4.13;;;;;;;11.03;88.29;101037.19;5028035;28;20045;-45
2023/04/29 03:58:46;;;;;;;5.10;3.72;;;;;;;11.01;88.50;101029.22;5029605;28;20041;-45
2023/04/29 04:01:14;;;;;;;8.65;4.45;;;;;;;11.04;88.65;101033.25;5028782;28;20163;-44
2023/04/29 04:03:42;;;;;;;4.07;3.65;;;;;;;11.10;88.78;101031.09;5029361;28;20053;-44
2023/04/29 04:06:09;;;;;;;5.25;4.25;;;;;;;11.12;88.85;101029.59;5028755;28;20497;-45
2023/04/29 04:08:35;;;;;;;6.68;4.13;;;;;;;11.13;88.96;101034.00;5028618;28;20055;-48
2023/04/29 04:11:03;;;;;;;6.97;3.97;;;;;;;11.14;89.48;101027.31;5028582;28;20125;-45
2023/04/29 04:13:30;;;;;;;11.35;4.53;;;;;;;11.18;89.47;101036.53;5029026;28;20053;-45
2023/04/29 04:15:57;;;;;;;6.78;3.80;;;;;;;11.23;89.58;101035.50;5027127;28;20128;-44
2023/04/29 04:18:23;;;;;;;7.35;4.90;;;;;;;11.25;89.54;101042.31;5040051;28;20045;-45
2023/04/29 04:20:50;;;;;;;5.45;3.65;;;;;;;11.27;89.69;101042.81;5016546;28;20045;-45
2023/04/29 04:23:17;;;;;;;4.70;3.15;;;;;;;11.32;89.89;101045.38;5028066;28;20127;-46
2023/04/29 04:25:47;;;;;;;5.00;3.70;;;;;;;11.35;89.83;101035.56;5026878;28;20041;-52
2023/04/29 04:28:14;;;;;;;6.38;3.33;;;;;;;11.35;89.98;101046.66;5026164;28;20045;-45
2023/04/29 04:30:41;;;;;;;5.30;3.15;;;;;;;11.36;90.00;101046.28;5025624;28;20052;-45
2023/04/29 04:33:09;;;;;;;5.55;2.97;;;;;;;11.37;90.20;101036.81;5025848;28;20060;-49
2023/04/29 04:35:36;;;;;;;5.68;3.60;;;;;;;11.40;90.33;101036.16;5020727;28;20048;-45
2023/04/29 04:38:03;;;;;;;4.22;3.55;;;;;;;11.40;90.36;101038.91;5035882;28;20045;-46
2023/04/29 04:40:29;;;;;;;4.70;3.53;;;;;;;11.42;90.58;101035.78;5025534;28;20045;-46
2023/04/29 04:42:56;;;;;;;5.97;3.53;;;;;;;11.45;90.79;101033.16;5022099;28;20042;-46
2023/04/29 04:45:23;;;;;;;6.55;3.30;;;;;;;11.46;90.73;101039.50;5030773;28;20145;-49
2023/04/29 04:47:49;;;;;;;5.10;3.28;;;;;;;11.45;90.68;101041.47;5027919;28;20046;-45
2023/04/29 04:50:16;;;;;;;5.20;3.53;;;;;;;11.46;90.77;101034.75;5025982;28;20041;-47
2023/04/29 04:52:43;;;;;;;5.28;3.47;;;;;;;11.47;90.83;101041.91;5027926;28;20106;-48
2023/04/29 04:55:10;;;;;;;3.95;2.92;;;;;;;11.48;91.14;101039.97;5026650;28;20128;-45
2023/04/29 04:57:41;;;;;;;3.58;2.88;;;;;;;11.48;91.05;101040.78;5025162;28;20120;-45
2023/04/29 05:00:08;;;;;;;8.18;3.28;;;;;;;11.48;91.20;101039.97;5021366;28;20037;-44
2023/04/29 05:02:35;;;;;;;4.53;3.08;;;;;;;11.50;91.23;101041.25;5029135;28;20466;-46
2023/04/29 05:05:02;;;;;;;7.57;3.88;;;;;;;11.52;91.12;101052.78;5027698;28;20066;-45
2023/04/29 05:07:29;;;;;;;7.30;3.35;;;;;;;11.54;91.26;101053.25;5022637;28;20053;-45
2023/04/29 05:09:56;;;;;;;5.45;3.17;;;;;;;11.52;91.23;101055.56;5029853;28;20045;-44
2023/04/29 05:12:25;;;;;;;4.97;3.30;;;;;;;11.54;91.53;101042.16;5030391;28;20088;-45
2023/04/29 05:14:52;;;;;;;8.07;4.30;;;;;;;11.57;91.60;101052.56;5026096;28;20053;-48
2023/04/29 05:17:19;;;;;;;7.20;3.17;;;;;;;11.59;91.66;101055.81;5030860;28;20453;-48
2023/04/29 05:19:45;;;;;;;8.50;4.50;;;;;;;11.60;91.68;101051.88;5027558;28;20502;-45
2023/04/29 05:22:12;;;;;;;6.95;3.97;;;;;;;11.65;91.96;101058.38;5023186;28;20127;-45
2023/04/29 05:24:39;;;;;;;5.80;3.17;;;;;;;11.69;92.00;101062.91;5031708;28;20045;-47
2023/04/29 05:27:08;;;;;;;4.90;3.17;;;;;;;11.76;91.90;101065.09;5032206;28;20085;-47
2023/04/29 05:29:34;;;;;;;4.22;3.33;;;;;;;11.80;91.82;101066.03;5033214;28;20137;-45
2023/04/29 05:32:01;;;;;;;5.60;3.72;;;;;;;11.84;91.95;101061.41;5034392;28;20076;-45
2023/04/29 05:34:28;;;;;;;5.28;3.20;;;;;;;11.86;92.19;101067.44;5031803;28;20407;-45
2023/04/29 05:36:56;;;;;;;5.38;3.22;;;;;;;11.91;92.24;101072.75;5031533;28;20510;-45
2023/04/29 05:39:23;;;;;;;6.47;3.95;;;;;;;11.95;92.36;101079.22;5031464;28;20050;-45
2023/04/29 05:41:50;;;;;;;7.88;4.20;;;;;;;11.98;92.27;101075.75;5031700;28;20156;-46
2023/04/29 05:44:17;;;;;;;3.67;3.00;;;;;;;12.01;92.37;101078.66;5030111;28;20116;-45
2023/04/29 05:46:45;;;;;;;5.07;3.42;;;;;;;12.04;92.26;101077.97;5019539;28;20045;-51
2023/04/29 05:49:11;;;;;;;4.38;3.03;;;;;;;12.09;92.34;101079.69;5031863;28;20368;-46
2023/04/29 05:51:41;;;;;;;6.53;4.00;;;;;;;12.11;92.57;101083.75;5031495;28;20483;-45
2023/04/29 05:54:07;;;;;;;5.43;3.90;;;;;;;12.14;92.45;101085.00;5030049;28;20406;-45
2023/04/29 05:56:34;;;;;;;5.30;3.35;;;;;;;12.15;92.67;101083.88;5029097;28;20061;-44
2023/04/29 05:59:01;;;;;;;4.45;3.63;;;;;;;12.15;92.68;101081.09;5029582;28;20068;-45
2023/04/29 06:01:28;;;;;;;8.63;4.35;;;;;;;12.15;92.92;101083.88;5020469;28;20116;-44
2023/04/29 06:03:55;;;;;;;6.45;3.85;;;;;;;12.15;93.10;101075.53;5027016;28;20086;-44
2023/04/29 06:06:22;;;;;;;7.18;4.07;;;;;;;12.15;93.21;101081.09;5025694;28;20041;-45
2023/04/29 06:08:49;;;;;;;5.20;3.65;;;;;;;12.15;93.45;101086.63;5026506;28;20653;-45
2023/04/29 06:11:15;;;;;;;8.48;4.00;;;;;;;12.15;93.68;101075.53;5028840;28;20056;-43
2023/04/29 06:13:42;;;;;;;7.05;4.90;;;;;;;12.15;94.02;101089.41;5027650;28;20041;-45
2023/04/29 06:16:10;;;;;;;8.48;4.90;;;;;;;12.15;94.42;101083.88;5027426;28;20057;-45
2023/04/29 06:18:37;;;;;;;9.38;4.22;;;;;;;12.14;94.45;101082.22;5026157;28;20141;-49
2023/04/29 06:21:07;;;;;;;7.90;4.32;;;;;;;12.14;94.70;101094.16;5023345;28;20406;-47
2023/04/29 06:23:33;;;;;;;6.13;4.53;;;;;;;12.15;95.02;101092.19;5031742;28;20045;-47
2023/04/29 06:26:00;;;;;;;9.18;4.93;;;;;;;12.15;95.27;101097.75;5031175;28;20515;-48
2023/04/29 06:28:28;;;;;;;9.18;4.80;;;;;;;12.17;95.54;101100.97;5029510;28;20080;-45
2023/04/29 06:30:55;;;;;;;8.43;5.30;;;;;;;12.19;95.63;101101.44;5032099;28;20212;-45
2023/04/29 06:33:22;;;;;;;9.10;4.97;;;;;;;12.17;96.05;101104.56;5030603;28;20072;-45
2023/04/29 06:35:49;;;;;;;7.00;4.60;;;;;;;12.20;96.23;101108.59;5030680;28;20480;-44
2023/04/29 06:38:16;;;;;;;10.82;4.68;;;;;;;12.20;96.43;101108.59;5030744;28;20046;-46
2023/04/29 06:40:42;;;;;;;8.88;5.95;;;;;;;12.24;96.61;101109.53;5034812;28;20053;-45
2023/04/29 06:43:09;;;;;;;10.07;6.80;;;;;;;12.28;96.70;101116.00;5030397;28;20035;-45
2023/04/29 06:45:36;;;;;;;8.77;5.85;;;;;;;12.33;96.85;101121.31;5038410;28;20037;-47
2023/04/29 06:48:03;;;;;;;10.45;6.20;;;;;;;12.38;96.91;101120.28;5028728;28;20049;-46
2023/04/29 06:50:30;;;;;;;13.30;7.20;;;;;;;12.42;97.12;101116.44;5030592;28;20055;-48
2023/04/29 06:52:58;;;;;;;13.38;6.70;;;;;;;12.49;96.97;101126.97;5029575;28;20499;-49
2023/04/29 06:55:25;;;;;;;9.07;5.68;;;;;;;12.57;97.23;101129.63;5025291;28;20084;-44
2023/04/29 06:57:51;;;;;;;11.73;7.85;;;;;;;12.63;97.20;101127.41;5027279;28;20412;-45
2023/04/29 07:00:19;;;;;;;9.80;7.05;;;;;;;12.67;97.40;101128.34;5024568;28;20076;-44
2023/04/29 07:02:49;;;;;;;8.38;6.18;;;;;;;12.74;97.41;101134.91;5028060;28;20315;-44
2023/04/29 07:05:16;;;;;;;8.63;6.22;;;;;;;12.79;97.40;101137.47;5034605;28;20402;-48
2023/04/29 07:07:44;;;;;;;9.90;6.20;;;;;;;12.85;97.56;101140.81;5027493;28;20076;-44
2023/04/29 07:10:10;;;;;;;10.77;6.57;;;;;;;12.89;97.71;101143.69;5031342;28;20048;-46
2023/04/29 07:12:37;;;;;;;15.85;7.03;;;;;;;12.92;97.65;101140.22;5030947;28;20050;-45
2023/04/29 07:15:05;;;;;;;9.85;6.45;;;;;;;12.99;98.05;101140.44;5029695;28;20136;-45
2023/04/29 07:17:31;;;;;;;12.75;5.75;;;;;;;13.06;98.08;101140.63;5029498;28;20069;-45
2023/04/29 07:19:58;;;;;;;8.70;5.68;;;;;;;13.14;97.89;101146.09;5029590;28;20049;-45
2023/04/29 07:22:25;;;;;;;12.57;5.95;;;;;;;13.23;98.20;101145.94;5029473;28;20041;-44
2023/04/29 07:24:53;;;;;;;7.75;5.85;;;;;;;13.28;97.82;101140.94;5029960;28;20068;-46
2023/04/29 07:27:20;;;;;;;9.40;4.97;;;;;;;13.34;97.85;101155.41;5029462;28;20049;-45
2023/04/29 07:29:47;;;;;;;7.70;6.07;;;;;;;13.40;98.18;101142.84;5032485;28;20071;-45
2023/04/29 07:32:14;;;;;;;9.73;6.75;;;;;;;13.53;98.22;101154.75;5030142;28;20056;-46
2023/04/29 07:34:42;;;;;;;9.23;5.90;;;;;;;13.62;98.29;101139.50;5029813;28;20053;-44
2023/04/29 07:37:09;;;;;;;8.45;5.93;;;;;;;13.69;98.41;101153.59;5028016;28;20128;-46
2023/04/29 07:39:36;;;;;;;8.68;5.22;;;;;;;13.67;98.14;101150.38;5029649;28;20048;-45
2023/04/29 07:42:03;;;;;;;10.90;5.82;;;;;;;13.62;98.12;101158.97;5029084;28;20080;-45
2023/04/29 07:44:31;;;;;;;9.77;5.82;;;;;;;13.61;98.35;101151.78;5036780;28;20094;-45
2023/04/29 07:46:57;;;;;;;9.77;6.40;;;;;;;13.60;98.38;101160.50;5029510;28;20049;-46
2023/04/29 07:49:25;;;;;;;8.65;6.78;;;;;;;13.59;98.51;101153.31;5029028;28;20049;-47
2023/04/29 07:51:51;;;;;;;8.02;6.22;;;;;;;13.54;98.47;101146.03;5029076;28;20322;-51
2023/04/29 07:54:18;;;;;;;10.98;6.60;;;;;;;13.52;98.31;101151.16;5029200;28;20053;-45
2023/04/29 07:56:45;;;;;;;9.68;6.75;;;;;;;13.50;98.26;101153.47;5025405;28;20051;-46
2023/04/29 07:59:12;;;;;;;11.30;6.72;;;;;;;13.47;98.46;101156.97;5026780;28;20069;-45
2023/04/29 08:01:42;;;;;;;8.82;6.75;;;;;;;13.48;98.46;101161.34;5029094;28;20049;-45
2023/04/29 08:04:09;;;;;;;10.23;6.90;;;;;;;13.50;98.64;101161.00;5029227;28;20411;-48
2023/04/29 08:06:37;;;;;;;11.90;7.07;;;;;;;13.53;98.70;101160.31;5026497;28;20087;-45
2023/04/29 08:09:03;;;;;;;11.43;6.72;;;;;;;13.56;98.58;101165.94;5020219;28;20286;-46
2023/04/29 08:11:30;;;;;;;11.13;7.35;;;;;;;13.60;98.64;101166.88;5020870;28;20056;-43
2023/04/29 08:13:58;;;;;;;11.65;6.90;;;;;;;13.67;98.41;101155.94;5026654;28;20754;-48
2023/04/29 08:16:25;;;;;;;10.95;7.18;;;;;;;13.74;98.51;101156.13;5034078;28;20080;-43
2023/04/29 08:18:53;;;;;;;11.40;8.70;;;;;;;13.84;98.74;101161.19;5023205;28;20045;-43
2023/04/29 08:21:20;;;;;;;13.30;8.05;;;;;;;13.98;98.46;101161.53;5025746;28;20037;-43
2023/04/29 08:23:46;;;;;;;11.52;7.63;;;;;;;14.14;98.36;101160.75;5031801;28;20136;-42
2023/04/29 08:26:13;;;;;;;10.98;8.07;;;;;;;14.24;98.34;101168.56;5028129;28;20045;-44
2023/04/29 08:28:40;;;;;;;9.10;7.22;;;;;;;14.39;98.64;101160.22;5029470;28;20469;-43
2023/04/29 08:31:07;;;;;;;11.95;7.63;;;;;;;14.51;98.58;101170.44;5034052;28;20096;-44
2023/04/29 08:33:34;;;;;;;10.20;7.10;;;;;;;14.59;98.30;101173.03;5028855;28;20053;-44
2023/04/29 08:36:02;;;;;;;8.38;7.20;;;;;;;14.66;98.51;101172.41;5023897;28;20081;-49
2023/04/29 08:38:29;;;;;;;8.50;6.88;;;;;;;14.71;98.36;101172.13;5013327;28;20152;-44
2023/04/29 08:40:57;;;;;;;7.80;6.22;;;;;;;14.74;98.32;101171.41;5034326;28;20045;-43
2023/04/29 08:43:25;;;;;;;12.57;7.78;;;;;;;14.78;98.41;101175.09;5028541;28;20384;-44
2023/04/29 08:45:52;;;;;;;10.80;7.57;;;;;;;14.77;98.38;101170.69;5037384;28;20410;-46
2023/04/29 08:48:20;;;;;;;9.15;7.07;;;;;;;14.80;98.46;101175.53;5029784;28;20136;-44
2023/04/29 08:50:46;;;;;;;9.40;6.95;;;;;;;14.86;98.46;101170.47;5028395;28;20049;-47
2023/04/29 08:53:13;;;;;;;15.23;7.97;;;;;;;14.93;98.42;101174.22;5027318;28;20454;-44
2023/04/29 08:55:44;;;;;;;14.10;7.68;;;;;;;15.01;98.27;101170.41;5030825;28;20052;-46
2023/04/29 08:58:13;;;;;;;11.90;7.63;;;;;;;15.03;98.20;101167.28;5029006;28;20044;-44
2023/04/29 09:00:43;;;;;;;13.20;7.93;;;;;;;15.02;98.11;101168.44;5028788;28;20056;-46
2023/04/29 09:03:26;;;;;;;13.90;7.95;;;;;;;15.04;98.23;101175.28;5019913;28;20059;-44
2023/04/29 09:05:55;;;;;;;10.98;8.30;;;;;;;15.05;98.20;101165.75;5029097;28;20041;-45
2023/04/29 09:08:23;;;;;;;13.07;7.03;;;;;;;15.07;98.12;101168.97;5027436;28;20041;-44
2023/04/29 09:10:53;;;;;;;11.88;7.68;;;;;;;15.09;97.94;101172.19;5030969;28;20092;-45
2023/04/29 09:13:23;;;;;;;10.20;8.20;;;;;;;15.17;98.12;101171.19;5025545;28;20033;-45
2023/04/29 09:15:50;;;;;;;12.85;9.18;;;;;;;15.22;98.14;101179.25;5027091;28;20354;-44
2023/04/29 09:18:49;;;;;;;9.82;7.90;;;;;;;15.33;97.95;101178.69;5023980;28;20052;-44
2023/04/29 09:21:21;;;;;;;16.45;8.27;;;;;;;15.40;97.66;101184.41;5023129;28;20037;-44
2023/04/29 09:23:51;;;;;;;10.40;8.07;;;;;;;15.45;97.14;101187.72;5027434;28;20060;-44
2023/04/29 09:26:18;;;;;;;12.77;8.50;;;;;;;15.50;97.09;101187.47;5027908;28;20056;-44
2023/04/29 09:28:46;;;;;;;10.48;8.10;;;;;;;15.58;97.12;101188.41;5031930;28;20073;-45
2023/04/29 09:31:26;;;;;;;10.43;7.72;;;;;;;16.00;97.13;101188.41;5032708;28;20045;-45
2023/04/29 09:33:56;;;;;;;9.38;7.78;;;;;;;16.53;95.52;101189.38;5030168;28;20099;-47
2023/04/29 09:36:41;;;;;;;13.57;8.73;;;;;;;17.02;94.15;101195.72;5030720;28;20048;-49
2023/04/29 09:39:14;;;;;;;14.95;8.13;;;;;;;17.21;93.19;101192.78;5031165;28;20384;-51
2023/04/29 09:41:42;;;;;;;10.70;7.47;;;;;;;17.33;93.06;101192.56;5029425;28;20041;-47
2023/04/29 09:44:10;;;;;;;14.02;7.40;;;;;;;17.49;92.29;101198.78;5032575;28;20403;-46
2023/04/29 09:46:37;;;;;;;6.80;6.00;;;;;;;17.60;92.19;101194.16;5029531;28;20123;-46
2023/04/29 09:49:22;;;;;;;10.35;6.82;;;;;;;17.94;91.92;101196.91;5031397;28;20160;-46
2023/04/29 09:51:53;;;;;;;8.55;5.60;;;;;;;18.43;90.64;101191.75;5028758;28;20049;-46
2023/04/29 09:54:27;;;;;;;12.00;6.15;;;;;;;19.12;87.88;101195.50;5030706;28;20052;-47
2023/04/29 09:56:55;;;;;;;7.43;5.65;;;;;;;19.44;85.67;101201.31;5019410;28;20050;-47
2023/04/29 09:59:23;;;;;;;9.07;5.57;;;;;;;19.42;85.07;101192.47;5030278;28;20049;-45
2023/04/29 10:01:52;;;;;;;6.88;5.22;;;;;;;19.24;84.55;101200.00;5027027;28;20041;-46
2023/04/29 10:04:22;;;;;;;10.57;5.55;;;;;;;19.24;84.71;101202.78;5033378;28;20038;-45
2023/04/29 10:06:51;;;;;;;7.25;4.78;;;;;;;19.16;83.28;101195.53;5029419;28;20049;-46
2023/04/29 10:09:19;;;;;;;8.55;5.28;;;;;;;19.09;83.17;101201.13;5029783;28;20771;-47
2023/04/29 10:11:49;;;;;;;9.48;5.53;;;;;;;19.08;82.70;101191.06;5021134;28;20749;-47
2023/04/29 10:14:18;;;;;;;7.45;3.88;;;;;;;18.92;82.32;101193.38;5026685;28;20495;-45
2023/04/29 10:16:53;;;;;;;4.68;2.88;;;;;;;18.74;82.84;101191.25;5027443;28;20044;-44
2023/04/29 10:19:34;;;;;;;4.35;2.40;;;;;;;19.26;82.20;101189.97;5027028;28;20099;-45
2023/04/29 10:22:08;;;;;;;4.95;2.75;;;;;;;20.13;78.31;101187.06;5028048;28;20049;-45
2023/04/29 10:24:36;;;;;;;1.88;1.65;;;;;;;20.79;75.87;101191.94;5030166;28;20041;-47
2023/04/29 10:27:06;;;;;;;2.50;1.77;;;;;;;21.50;72.91;101205.88;5029134;28;20045;-45
2023/04/29 10:29:35;;;;;;;3.92;1.73;;;;;;;21.32;72.10;101205.13;5029014;28;20050;-46
2023/04/29 10:32:06;;;;;;;4.00;2.35;;;;;;;20.68;71.86;101199.56;5031564;28;20053;-47
2023/04/29 10:34:35;;;;;;;4.53;2.60;;;;;;;20.17;72.63;101193.50;5029491;28;20037;-46
2023/04/29 10:37:03;;;;;;;6.88;4.63;;;;;;;19.78;73.85;101196.22;5021887;28;20059;-45
2023/04/29 10:39:38;;;;;;;6.55;3.50;;;;;;;19.46;74.58;101201.72;5027364;28;20132;-49
2023/04/29 10:42:19;;;;;;;4.75;3.25;;;;;;;19.22;74.99;101205.19;5029158;28;20422;-45
2023/04/29 10:45:18;;;;;;;5.35;4.10;;;;;;;19.08;75.16;101205.09;5031089;28;20112;-50
2023/04/29 10:48:05;;;;;;;6.10;3.47;;;;;;;19.09;75.15;101204.69;5022389;28;20402;-47
2023/04/29 10:50:35;;;;;;;5.57;3.70;;;;;;;19.20;74.90;101204.75;5025926;28;20569;-45
2023/04/29 10:53:03;;;;;;;9.10;4.30;;;;;;;19.00;74.61;101209.06;5027550;28;20037;-47
2023/04/29 10:55:30;;;;;;;6.28;4.53;;;;;;;18.66;74.88;101206.44;5026041;28;20049;-46
2023/04/29 10:57:57;;;;;;;7.68;5.18;;;;;;;18.42;75.10;101212.59;5027999;28;20061;-47
2023/04/29 11:00:29;;;;;;;6.57;4.70;;;;;;;18.19;75.86;101220.38;5022782;28;20049;-44
2023/04/29 11:02:58;;;;;;;10.52;5.82;;;;;;;17.95;76.00;101220.94;5019368;28;20068;-45
2023/04/29 11:05:36;;;;;;;8.27;5.38;;;;;;;17.67;76.32;101220.59;5014172;28;20048;-45
2023/04/29 11:08:22;;;;;;;6.35;4.30;;;;;;;17.47;76.69;101206.72;5020908;28;20057;-46
2023/04/29 11:10:53;;;;;;;6.57;4.30;;;;;;;17.36;76.91;101197.41;5027673;28;20045;-45
2023/04/29 11:13:30;;;;;;;5.35;4.38;;;;;;;17.42;77.27;101204.25;5025610;28;20107;-45
2023/04/29 11:16:10;;;;;;;4.45;3.53;;;;;;;17.59;77.28;101209.31;5025909;28;20045;-46
2023/04/29 11:19:02;;;;;;;5.47;4.05;;;;;;;17.66;77.02;101214.19;5020455;28;20653;-48
2023/04/29 11:21:31;;;;;;;4.07;3.38;;;;;;;17.70;77.32;101219.84;5026090;28;20069;-48
2023/04/29 11:24:00;;;;;;;4.88;3.30;;;;;;;17.77;77.06;101214.31;5026453;28;20104;-44
2023/04/29 11:26:26;;;;;;;3.65;3.17;;;;;;;17.81;76.76;101217.97;5027950;28;20048;-45
2023/04/29 11:28:53;;;;;;;4.00;3.53;;;;;;;17.84;76.65;101214.41;5026011;28;20056;-44